sensor_id;sensor_type;location;lat;lon;timestamp;P1;durP1;ratioP1;P2;durP2;ratioP2
47161;SDS011;32921;53.256;8.198;2022-09-03T00:01:27;3.08;;;1.38;;
47161;SDS011;32921;53.256;8.198;2022-09-03T00:04:04;2.00;;;1.15;;
47161;SDS011;32921;53.256;8.198;2022-09-03T00:06:43;4.82;;;1.45;;
47161;SDS011;32921;53.256;8.198;2022-09-03T00:14:33;3.70;;;1.40;;
47161;SDS011;32921;53.256;8.198;2022-09-03T00:17:04;5.32;;;1.40;;
47161;SDS011;32921;53.256;8.198;2022-09-03T00:19:43;2.90;;;1.30;;
47161;SDS011;32921;53.256;8.198;2022-09-03T00:22:18;1.65;;;1.17;;
47161;SDS011;32921;53.256;8.198;2022-09-03T00:24:53;2.17;;;1.23;;
47161;SDS011;32921;53.256;8.198;2022-09-03T00:27:24;5.40;;;1.30;;
47161;SDS011;32921;53.256;8.198;2022-09-03T00:30:07;5.70;;;1.40;;
47161;SDS011;32921;53.256;8.198;2022-09-03T00:32:39;7.50;;;1.80;;
47161;SDS011;32921;53.256;8.198;2022-09-03T00:38:12;3.60;;;1.20;;
47161;SDS011;32921;53.256;8.198;2022-09-03T00:46:05;3.40;;;1.13;;
47161;SDS011;32921;53.256;8.198;2022-09-03T00:49:45;4.18;;;1.30;;
47161;SDS011;32921;53.256;8.198;2022-09-03T00:57:51;2.83;;;1.38;;
47161;SDS011;32921;53.256;8.198;2022-09-03T01:00:39;2.40;;;1.13;;
47161;SDS011;32921;53.256;8.198;2022-09-03T01:05:41;5.32;;;1.42;;
47161;SDS011;32921;53.256;8.198;2022-09-03T01:08:33;3.88;;;1.45;;
47161;SDS011;32921;53.256;8.198;2022-09-03T01:11:23;4.47;;;1.50;;
47161;SDS011;32921;53.256;8.198;2022-09-03T01:16:58;2.63;;;1.50;;
47161;SDS011;32921;53.256;8.198;2022-09-03T01:19:59;3.22;;;1.50;;
47161;SDS011;32921;53.256;8.198;2022-09-03T01:23:00;2.03;;;1.30;;
47161;SDS011;32921;53.256;8.198;2022-09-03T01:28:55;4.72;;;1.40;;
47161;SDS011;32921;53.256;8.198;2022-09-03T01:31:28;4.78;;;1.58;;
47161;SDS011;32921;53.256;8.198;2022-09-03T01:34:05;3.70;;;1.30;;
47161;SDS011;32921;53.256;8.198;2022-09-03T01:39:32;3.00;;;1.30;;
47161;SDS011;32921;53.256;8.198;2022-09-03T01:42:22;2.45;;;1.55;;
47161;SDS011;32921;53.256;8.198;2022-09-03T01:50:57;5.15;;;1.55;;
47161;SDS011;32921;53.256;8.198;2022-09-03T02:01:35;4.25;;;1.65;;
47161;SDS011;32921;53.256;8.198;2022-09-03T02:04:31;4.15;;;1.58;;
47161;SDS011;32921;53.256;8.198;2022-09-03T02:06:58;4.28;;;1.73;;
47161;SDS011;32921;53.256;8.198;2022-09-03T02:09:25;7.05;;;1.33;;
47161;SDS011;32921;53.256;8.198;2022-09-03T02:11:53;6.18;;;1.50;;
47161;SDS011;32921;53.256;8.198;2022-09-03T02:14:24;2.00;;;1.33;;
47161;SDS011;32921;53.256;8.198;2022-09-03T02:16:54;4.75;;;1.70;;
47161;SDS011;32921;53.256;8.198;2022-09-03T02:19:22;3.22;;;1.60;;
47161;SDS011;32921;53.256;8.198;2022-09-03T02:21:52;3.60;;;1.60;;
47161;SDS011;32921;53.256;8.198;2022-09-03T02:24:19;5.25;;;1.58;;
47161;SDS011;32921;53.256;8.198;2022-09-03T02:26:45;2.35;;;1.70;;
47161;SDS011;32921;53.256;8.198;2022-09-03T02:29:11;2.95;;;1.60;;
47161;SDS011;32921;53.256;8.198;2022-09-03T02:31:39;3.72;;;1.65;;
47161;SDS011;32921;53.256;8.198;2022-09-03T02:34:04;2.72;;;1.50;;
47161;SDS011;32921;53.256;8.198;2022-09-03T02:36:31;3.85;;;1.73;;
47161;SDS011;32921;53.256;8.198;2022-09-03T02:38:59;3.95;;;1.98;;
47161;SDS011;32921;53.256;8.198;2022-09-03T02:41:26;3.83;;;1.60;;
47161;SDS011;32921;53.256;8.198;2022-09-03T02:43:57;2.88;;;1.52;;
47161;SDS011;32921;53.256;8.198;2022-09-03T02:46:37;3.47;;;1.60;;
47161;SDS011;32921;53.256;8.198;2022-09-03T02:49:05;5.32;;;1.70;;
47161;SDS011;32921;53.256;8.198;2022-09-03T02:51:32;5.43;;;1.92;;
47161;SDS011;32921;53.256;8.198;2022-09-03T02:54:03;3.03;;;1.70;;
47161;SDS011;32921;53.256;8.198;2022-09-03T02:56:28;4.75;;;1.70;;
47161;SDS011;32921;53.256;8.198;2022-09-03T02:58:54;3.50;;;1.65;;
47161;SDS011;32921;53.256;8.198;2022-09-03T03:01:21;2.72;;;1.67;;
47161;SDS011;32921;53.256;8.198;2022-09-03T03:03:46;5.00;;;1.60;;
47161;SDS011;32921;53.256;8.198;2022-09-03T03:06:12;5.07;;;1.60;;
47161;SDS011;32921;53.256;8.198;2022-09-03T03:08:38;5.07;;;2.05;;
47161;SDS011;32921;53.256;8.198;2022-09-03T03:11:04;3.83;;;1.90;;
47161;SDS011;32921;53.256;8.198;2022-09-03T03:13:31;2.92;;;1.67;;
47161;SDS011;32921;53.256;8.198;2022-09-03T03:15:58;3.20;;;1.75;;
47161;SDS011;32921;53.256;8.198;2022-09-03T03:18:28;5.32;;;1.50;;
47161;SDS011;32921;53.256;8.198;2022-09-03T03:20:54;3.08;;;1.65;;
47161;SDS011;32921;53.256;8.198;2022-09-03T03:23:20;5.22;;;1.50;;
47161;SDS011;32921;53.256;8.198;2022-09-03T03:25:45;4.88;;;2.00;;
47161;SDS011;32921;53.256;8.198;2022-09-03T03:28:11;4.50;;;1.85;;
47161;SDS011;32921;53.256;8.198;2022-09-03T03:30:43;4.93;;;2.10;;
47161;SDS011;32921;53.256;8.198;2022-09-03T03:33:11;5.68;;;1.67;;
47161;SDS011;32921;53.256;8.198;2022-09-03T03:35:36;4.35;;;1.80;;
47161;SDS011;32921;53.256;8.198;2022-09-03T03:38:02;4.72;;;1.95;;
47161;SDS011;32921;53.256;8.198;2022-09-03T03:40:28;3.28;;;1.80;;
47161;SDS011;32921;53.256;8.198;2022-09-03T03:42:56;4.85;;;1.70;;
47161;SDS011;32921;53.256;8.198;2022-09-03T03:45:22;5.15;;;1.67;;
47161;SDS011;32921;53.256;8.198;2022-09-03T03:47:47;3.80;;;1.70;;
47161;SDS011;32921;53.256;8.198;2022-09-03T03:50:18;2.75;;;1.70;;
47161;SDS011;32921;53.256;8.198;2022-09-03T03:52:44;5.93;;;2.00;;
47161;SDS011;32921;53.256;8.198;2022-09-03T03:55:09;5.90;;;1.80;;
47161;SDS011;32921;53.256;8.198;2022-09-03T03:57:35;8.43;;;2.00;;
47161;SDS011;32921;53.256;8.198;2022-09-03T04:00:00;3.55;;;1.70;;
47161;SDS011;32921;53.256;8.198;2022-09-03T04:02:26;7.18;;;2.10;;
47161;SDS011;32921;53.256;8.198;2022-09-03T04:04:52;4.95;;;1.85;;
47161;SDS011;32921;53.256;8.198;2022-09-03T04:07:17;6.97;;;1.98;;
47161;SDS011;32921;53.256;8.198;2022-09-03T04:09:43;3.85;;;1.63;;
47161;SDS011;32921;53.256;8.198;2022-09-03T04:12:09;3.35;;;1.60;;
47161;SDS011;32921;53.256;8.198;2022-09-03T04:14:34;5.22;;;1.85;;
47161;SDS011;32921;53.256;8.198;2022-09-03T04:17:00;7.38;;;2.08;;
47161;SDS011;32921;53.256;8.198;2022-09-03T04:19:27;4.78;;;1.90;;
47161;SDS011;32921;53.256;8.198;2022-09-03T04:21:54;2.72;;;1.70;;
47161;SDS011;32921;53.256;8.198;2022-09-03T04:24:20;5.68;;;2.03;;
47161;SDS011;32921;53.256;8.198;2022-09-03T04:26:46;3.63;;;1.80;;
47161;SDS011;32921;53.256;8.198;2022-09-03T04:29:14;5.18;;;2.13;;
47161;SDS011;32921;53.256;8.198;2022-09-03T04:31:39;3.10;;;1.92;;
47161;SDS011;32921;53.256;8.198;2022-09-03T04:34:25;4.40;;;2.20;;
47161;SDS011;32921;53.256;8.198;2022-09-03T04:36:50;6.80;;;2.00;;
47161;SDS011;32921;53.256;8.198;2022-09-03T04:39:16;6.78;;;1.95;;
47161;SDS011;32921;53.256;8.198;2022-09-03T04:41:41;3.63;;;1.90;;
47161;SDS011;32921;53.256;8.198;2022-09-03T04:44:08;6.65;;;1.98;;
47161;SDS011;32921;53.256;8.198;2022-09-03T04:46:35;3.10;;;2.00;;
47161;SDS011;32921;53.256;8.198;2022-09-03T04:49:00;3.97;;;1.98;;
47161;SDS011;32921;53.256;8.198;2022-09-03T04:51:26;5.22;;;1.83;;
47161;SDS011;32921;53.256;8.198;2022-09-03T04:53:56;3.25;;;2.00;;
47161;SDS011;32921;53.256;8.198;2022-09-03T04:56:26;3.28;;;1.90;;
47161;SDS011;32921;53.256;8.198;2022-09-03T04:58:57;4.22;;;1.83;;
47161;SDS011;32921;53.256;8.198;2022-09-03T05:01:28;3.33;;;1.80;;
47161;SDS011;32921;53.256;8.198;2022-09-03T05:03:55;6.28;;;1.92;;
47161;SDS011;32921;53.256;8.198;2022-09-03T05:06:22;2.53;;;1.77;;
47161;SDS011;32921;53.256;8.198;2022-09-03T05:08:49;5.20;;;1.88;;
47161;SDS011;32921;53.256;8.198;2022-09-03T05:11:16;4.15;;;2.17;;
47161;SDS011;32921;53.256;8.198;2022-09-03T05:13:43;5.47;;;2.00;;
47161;SDS011;32921;53.256;8.198;2022-09-03T05:16:15;3.00;;;1.70;;
47161;SDS011;32921;53.256;8.198;2022-09-03T05:18:41;4.13;;;1.80;;
47161;SDS011;32921;53.256;8.198;2022-09-03T05:21:08;5.35;;;1.80;;
47161;SDS011;32921;53.256;8.198;2022-09-03T05:23:38;3.55;;;1.50;;
47161;SDS011;32921;53.256;8.198;2022-09-03T05:26:10;4.93;;;1.80;;
47161;SDS011;32921;53.256;8.198;2022-09-03T05:28:44;4.97;;;1.90;;
47161;SDS011;32921;53.256;8.198;2022-09-03T05:31:11;5.30;;;1.80;;
47161;SDS011;32921;53.256;8.198;2022-09-03T05:33:41;3.95;;;1.70;;
47161;SDS011;32921;53.256;8.198;2022-09-03T05:36:09;4.82;;;1.60;;
47161;SDS011;32921;53.256;8.198;2022-09-03T05:38:36;4.20;;;1.85;;
47161;SDS011;32921;53.256;8.198;2022-09-03T05:41:03;2.83;;;1.55;;
47161;SDS011;32921;53.256;8.198;2022-09-03T05:43:31;2.83;;;1.70;;
47161;SDS011;32921;53.256;8.198;2022-09-03T05:45:58;4.85;;;1.60;;
47161;SDS011;32921;53.256;8.198;2022-09-03T05:48:26;2.95;;;1.70;;
47161;SDS011;32921;53.256;8.198;2022-09-03T05:51:01;6.97;;;1.90;;
47161;SDS011;32921;53.256;8.198;2022-09-03T05:53:27;4.88;;;1.45;;
47161;SDS011;32921;53.256;8.198;2022-09-03T05:55:57;4.40;;;1.42;;
47161;SDS011;32921;53.256;8.198;2022-09-03T05:58:30;11.18;;;2.15;;
47161;SDS011;32921;53.256;8.198;2022-09-03T06:00:56;4.55;;;1.70;;
47161;SDS011;32921;53.256;8.198;2022-09-03T06:03:22;4.78;;;1.70;;
47161;SDS011;32921;53.256;8.198;2022-09-03T06:05:51;4.80;;;1.90;;
47161;SDS011;32921;53.256;8.198;2022-09-03T06:08:18;2.63;;;1.60;;
47161;SDS011;32921;53.256;8.198;2022-09-03T06:10:47;3.67;;;1.63;;
47161;SDS011;32921;53.256;8.198;2022-09-03T06:13:12;4.57;;;1.60;;
47161;SDS011;32921;53.256;8.198;2022-09-03T06:15:38;2.47;;;1.30;;
47161;SDS011;32921;53.256;8.198;2022-09-03T06:18:04;3.22;;;1.50;;
47161;SDS011;32921;53.256;8.198;2022-09-03T06:20:30;5.47;;;1.60;;
47161;SDS011;32921;53.256;8.198;2022-09-03T06:22:56;2.58;;;1.40;;
47161;SDS011;32921;53.256;8.198;2022-09-03T06:25:22;5.40;;;1.60;;
47161;SDS011;32921;53.256;8.198;2022-09-03T06:27:48;3.67;;;1.40;;
47161;SDS011;32921;53.256;8.198;2022-09-03T06:30:14;3.50;;;1.23;;
47161;SDS011;32921;53.256;8.198;2022-09-03T06:32:47;3.22;;;1.50;;
47161;SDS011;32921;53.256;8.198;2022-09-03T06:35:16;4.78;;;1.60;;
47161;SDS011;32921;53.256;8.198;2022-09-03T06:37:42;4.78;;;1.60;;
47161;SDS011;32921;53.256;8.198;2022-09-03T06:40:08;4.78;;;1.75;;
47161;SDS011;32921;53.256;8.198;2022-09-03T06:42:38;2.65;;;1.40;;
47161;SDS011;32921;53.256;8.198;2022-09-03T06:45:06;2.65;;;1.50;;
47161;SDS011;32921;53.256;8.198;2022-09-03T06:47:33;3.13;;;1.30;;
47161;SDS011;32921;53.256;8.198;2022-09-03T06:50:05;6.20;;;1.42;;
47161;SDS011;32921;53.256;8.198;2022-09-03T06:52:32;5.05;;;1.65;;
47161;SDS011;32921;53.256;8.198;2022-09-03T06:54:57;3.15;;;1.15;;
47161;SDS011;32921;53.256;8.198;2022-09-03T06:57:23;2.58;;;1.30;;
47161;SDS011;32921;53.256;8.198;2022-09-03T06:59:48;3.13;;;1.40;;
47161;SDS011;32921;53.256;8.198;2022-09-03T07:02:14;3.95;;;1.45;;
47161;SDS011;32921;53.256;8.198;2022-09-03T07:04:40;4.57;;;1.60;;
47161;SDS011;32921;53.256;8.198;2022-09-03T07:07:05;6.15;;;1.48;;
47161;SDS011;32921;53.256;8.198;2022-09-03T07:09:37;5.28;;;1.60;;
47161;SDS011;32921;53.256;8.198;2022-09-03T07:12:03;3.10;;;1.30;;
47161;SDS011;32921;53.256;8.198;2022-09-03T07:14:29;2.20;;;1.13;;
47161;SDS011;32921;53.256;8.198;2022-09-03T07:16:54;6.07;;;1.25;;
47161;SDS011;32921;53.256;8.198;2022-09-03T07:19:20;2.22;;;1.02;;
47161;SDS011;32921;53.256;8.198;2022-09-03T07:21:45;6.43;;;1.27;;
47161;SDS011;32921;53.256;8.198;2022-09-03T07:24:11;3.80;;;1.45;;
47161;SDS011;32921;53.256;8.198;2022-09-03T07:26:38;4.80;;;1.30;;
47161;SDS011;32921;53.256;8.198;2022-09-03T07:29:07;11.88;;;1.42;;
47161;SDS011;32921;53.256;8.198;2022-09-03T07:31:34;8.13;;;1.27;;
47161;SDS011;32921;53.256;8.198;2022-09-03T07:34:04;4.18;;;1.60;;
47161;SDS011;32921;53.256;8.198;2022-09-03T07:36:38;4.57;;;1.40;;
47161;SDS011;32921;53.256;8.198;2022-09-03T07:39:09;6.85;;;1.30;;
47161;SDS011;32921;53.256;8.198;2022-09-03T07:41:36;2.67;;;1.20;;
47161;SDS011;32921;53.256;8.198;2022-09-03T07:44:02;4.68;;;1.38;;
47161;SDS011;32921;53.256;8.198;2022-09-03T07:46:32;5.22;;;1.30;;
47161;SDS011;32921;53.256;8.198;2022-09-03T07:48:59;4.00;;;1.20;;
47161;SDS011;32921;53.256;8.198;2022-09-03T07:51:27;2.70;;;1.10;;
47161;SDS011;32921;53.256;8.198;2022-09-03T07:53:55;3.83;;;1.30;;
47161;SDS011;32921;53.256;8.198;2022-09-03T07:56:22;8.27;;;1.23;;
47161;SDS011;32921;53.256;8.198;2022-09-03T07:58:48;4.22;;;1.30;;
47161;SDS011;32921;53.256;8.198;2022-09-03T08:01:15;6.10;;;1.52;;
47161;SDS011;32921;53.256;8.198;2022-09-03T08:03:42;5.82;;;1.35;;
47161;SDS011;32921;53.256;8.198;2022-09-03T08:06:09;2.80;;;1.10;;
47161;SDS011;32921;53.256;8.198;2022-09-03T08:08:36;5.35;;;1.40;;
47161;SDS011;32921;53.256;8.198;2022-09-03T08:11:06;6.13;;;1.85;;
47161;SDS011;32921;53.256;8.198;2022-09-03T08:13:34;2.22;;;1.25;;
47161;SDS011;32921;53.256;8.198;2022-09-03T08:16:04;3.92;;;1.40;;
47161;SDS011;32921;53.256;8.198;2022-09-03T08:18:31;4.07;;;1.40;;
47161;SDS011;32921;53.256;8.198;2022-09-03T08:21:00;3.80;;;1.42;;
47161;SDS011;32921;53.256;8.198;2022-09-03T08:23:25;6.82;;;1.60;;
47161;SDS011;32921;53.256;8.198;2022-09-03T08:26:00;3.72;;;1.30;;
47161;SDS011;32921;53.256;8.198;2022-09-03T08:28:27;3.35;;;1.20;;
47161;SDS011;32921;53.256;8.198;2022-09-03T08:30:52;7.10;;;1.45;;
47161;SDS011;32921;53.256;8.198;2022-09-03T08:33:19;3.85;;;1.33;;
47161;SDS011;32921;53.256;8.198;2022-09-03T08:36:01;2.72;;;1.10;;
47161;SDS011;32921;53.256;8.198;2022-09-03T08:38:32;3.58;;;1.23;;
47161;SDS011;32921;53.256;8.198;2022-09-03T08:46:41;6.10;;;1.25;;
47161;SDS011;32921;53.256;8.198;2022-09-03T08:49:08;3.17;;;1.10;;
47161;SDS011;32921;53.256;8.198;2022-09-03T08:51:38;9.13;;;1.52;;
47161;SDS011;32921;53.256;8.198;2022-09-03T08:54:06;4.13;;;1.25;;
47161;SDS011;32921;53.256;8.198;2022-09-03T08:56:36;3.30;;;1.30;;
47161;SDS011;32921;53.256;8.198;2022-09-03T08:59:04;5.82;;;1.48;;
47161;SDS011;32921;53.256;8.198;2022-09-03T09:06:58;3.22;;;1.15;;
47161;SDS011;32921;53.256;8.198;2022-09-03T09:12:06;6.18;;;1.38;;
47161;SDS011;32921;53.256;8.198;2022-09-03T09:15:02;3.63;;;1.48;;
47161;SDS011;32921;53.256;8.198;2022-09-03T09:23:23;5.20;;;1.30;;
47161;SDS011;32921;53.256;8.198;2022-09-03T09:25:55;3.70;;;1.45;;
47161;SDS011;32921;53.256;8.198;2022-09-03T09:28:24;8.45;;;1.23;;
47161;SDS011;32921;53.256;8.198;2022-09-03T09:31:00;8.32;;;1.10;;
47161;SDS011;32921;53.256;8.198;2022-09-03T09:33:28;2.80;;;1.13;;
47161;SDS011;32921;53.256;8.198;2022-09-03T09:35:58;3.72;;;1.13;;
47161;SDS011;32921;53.256;8.198;2022-09-03T09:38:26;3.38;;;1.23;;
47161;SDS011;32921;53.256;8.198;2022-09-03T09:41:06;6.22;;;1.10;;
47161;SDS011;32921;53.256;8.198;2022-09-03T09:43:46;5.15;;;1.20;;
47161;SDS011;32921;53.256;8.198;2022-09-03T09:46:13;3.92;;;1.17;;
47161;SDS011;32921;53.256;8.198;2022-09-03T09:51:20;4.72;;;1.20;;
47161;SDS011;32921;53.256;8.198;2022-09-03T09:54:09;4.43;;;1.10;;
47161;SDS011;32921;53.256;8.198;2022-09-03T09:56:44;2.72;;;0.93;;
47161;SDS011;32921;53.256;8.198;2022-09-03T09:59:11;4.07;;;1.00;;
47161;SDS011;32921;53.256;8.198;2022-09-03T10:01:39;5.90;;;1.10;;
47161;SDS011;32921;53.256;8.198;2022-09-03T10:04:29;3.97;;;0.70;;
47161;SDS011;32921;53.256;8.198;2022-09-03T10:06:57;3.78;;;0.95;;
47161;SDS011;32921;53.256;8.198;2022-09-03T10:09:43;1.80;;;0.90;;
47161;SDS011;32921;53.256;8.198;2022-09-03T10:12:12;4.00;;;1.08;;
47161;SDS011;32921;53.256;8.198;2022-09-03T10:14:43;2.17;;;0.90;;
47161;SDS011;32921;53.256;8.198;2022-09-03T10:17:23;7.32;;;1.20;;
47161;SDS011;32921;53.256;8.198;2022-09-03T10:20:13;8.23;;;1.52;;
47161;SDS011;32921;53.256;8.198;2022-09-03T10:23:05;3.80;;;0.82;;
47161;SDS011;32921;53.256;8.198;2022-09-03T10:28:03;2.78;;;0.80;;
47161;SDS011;32921;53.256;8.198;2022-09-03T10:30:31;2.70;;;0.90;;
47161;SDS011;32921;53.256;8.198;2022-09-03T10:33:18;3.33;;;0.80;;
47161;SDS011;32921;53.256;8.198;2022-09-03T10:35:51;3.00;;;0.80;;
47161;SDS011;32921;53.256;8.198;2022-09-03T10:38:28;4.00;;;0.85;;
47161;SDS011;32921;53.256;8.198;2022-09-03T10:41:14;4.35;;;0.90;;
47161;SDS011;32921;53.256;8.198;2022-09-03T10:44:28;2.03;;;0.88;;
47161;SDS011;32921;53.256;8.198;2022-09-03T10:47:12;1.77;;;0.70;;
47161;SDS011;32921;53.256;8.198;2022-09-03T10:49:57;4.28;;;1.00;;
47161;SDS011;32921;53.256;8.198;2022-09-03T10:57:55;6.25;;;1.10;;
47161;SDS011;32921;53.256;8.198;2022-09-03T11:00:36;3.33;;;0.90;;
47161;SDS011;32921;53.256;8.198;2022-09-03T11:03:16;2.95;;;0.65;;
47161;SDS011;32921;53.256;8.198;2022-09-03T11:06:08;6.25;;;1.00;;
47161;SDS011;32921;53.256;8.198;2022-09-03T11:08:52;4.25;;;0.90;;
47161;SDS011;32921;53.256;8.198;2022-09-03T11:11:25;3.50;;;1.00;;
47161;SDS011;32921;53.256;8.198;2022-09-03T11:14:20;4.18;;;0.98;;
47161;SDS011;32921;53.256;8.198;2022-09-03T11:16:52;6.22;;;1.10;;
47161;SDS011;32921;53.256;8.198;2022-09-03T11:19:33;4.40;;;0.85;;
47161;SDS011;32921;53.256;8.198;2022-09-03T11:24:30;2.65;;;0.63;;
47161;SDS011;32921;53.256;8.198;2022-09-03T11:27:14;3.17;;;1.00;;
47161;SDS011;32921;53.256;8.198;2022-09-03T11:29:57;3.83;;;1.35;;
47161;SDS011;32921;53.256;8.198;2022-09-03T11:32:51;3.13;;;0.90;;
47161;SDS011;32921;53.256;8.198;2022-09-03T11:37:58;3.13;;;1.00;;
47161;SDS011;32921;53.256;8.198;2022-09-03T11:40:31;2.53;;;0.80;;
47161;SDS011;32921;53.256;8.198;2022-09-03T11:45:39;6.95;;;1.20;;
47161;SDS011;32921;53.256;8.198;2022-09-03T11:51:16;8.13;;;1.02;;
47161;SDS011;32921;53.256;8.198;2022-09-03T11:56:21;2.20;;;0.95;;
47161;SDS011;32921;53.256;8.198;2022-09-03T11:58:57;5.05;;;0.90;;
47161;SDS011;32921;53.256;8.198;2022-09-03T12:01:27;5.45;;;1.17;;
47161;SDS011;32921;53.256;8.198;2022-09-03T12:04:03;2.67;;;1.00;;
47161;SDS011;32921;53.256;8.198;2022-09-03T12:11:51;3.50;;;0.88;;
47161;SDS011;32921;53.256;8.198;2022-09-03T12:19:56;3.97;;;1.00;;
47161;SDS011;32921;53.256;8.198;2022-09-03T12:22:26;2.42;;;0.70;;
47161;SDS011;32921;53.256;8.198;2022-09-03T12:24:53;1.73;;;0.73;;
47161;SDS011;32921;53.256;8.198;2022-09-03T12:27:21;5.35;;;1.10;;
47161;SDS011;32921;53.256;8.198;2022-09-03T12:29:55;6.70;;;0.80;;
47161;SDS011;32921;53.256;8.198;2022-09-03T12:32:27;2.15;;;0.70;;
47161;SDS011;32921;53.256;8.198;2022-09-03T12:35:09;1.48;;;0.70;;
47161;SDS011;32921;53.256;8.198;2022-09-03T12:37:36;2.30;;;0.95;;
47161;SDS011;32921;53.256;8.198;2022-09-03T12:40:02;2.88;;;0.90;;
47161;SDS011;32921;53.256;8.198;2022-09-03T12:42:31;1.15;;;0.70;;
47161;SDS011;32921;53.256;8.198;2022-09-03T12:45:04;2.22;;;0.77;;
47161;SDS011;32921;53.256;8.198;2022-09-03T12:47:40;1.63;;;0.75;;
47161;SDS011;32921;53.256;8.198;2022-09-03T12:50:08;5.10;;;1.00;;
47161;SDS011;32921;53.256;8.198;2022-09-03T12:58:16;6.32;;;1.10;;
47161;SDS011;32921;53.256;8.198;2022-09-03T13:05:59;1.92;;;0.90;;
47161;SDS011;32921;53.256;8.198;2022-09-03T13:08:37;5.55;;;0.77;;
47161;SDS011;32921;53.256;8.198;2022-09-03T13:11:09;2.38;;;0.80;;
47161;SDS011;32921;53.256;8.198;2022-09-03T13:13:47;1.65;;;0.77;;
47161;SDS011;32921;53.256;8.198;2022-09-03T13:19:00;1.83;;;0.77;;
47161;SDS011;32921;53.256;8.198;2022-09-03T13:27:29;2.90;;;0.68;;
47161;SDS011;32921;53.256;8.198;2022-09-03T13:30:12;2.65;;;0.80;;
47161;SDS011;32921;53.256;8.198;2022-09-03T13:33:07;4.22;;;0.65;;
47161;SDS011;32921;53.256;8.198;2022-09-03T13:35:36;4.00;;;0.70;;
47161;SDS011;32921;53.256;8.198;2022-09-03T13:38:17;4.78;;;0.80;;
47161;SDS011;32921;53.256;8.198;2022-09-03T13:40:58;3.10;;;0.88;;
47161;SDS011;32921;53.256;8.198;2022-09-03T13:43:32;1.95;;;0.80;;
47161;SDS011;32921;53.256;8.198;2022-09-03T13:46:16;1.88;;;0.60;;
47161;SDS011;32921;53.256;8.198;2022-09-03T13:48:48;2.95;;;0.82;;
47161;SDS011;32921;53.256;8.198;2022-09-03T13:54:14;1.98;;;0.70;;
47161;SDS011;32921;53.256;8.198;2022-09-03T13:56:58;3.08;;;0.70;;
47161;SDS011;32921;53.256;8.198;2022-09-03T14:00:12;2.63;;;0.80;;
47161;SDS011;32921;53.256;8.198;2022-09-03T14:19:02;5.10;;;0.85;;
47161;SDS011;32921;53.256;8.198;2022-09-03T14:21:41;3.78;;;0.77;;
47161;SDS011;32921;53.256;8.198;2022-09-03T14:24:23;2.90;;;0.80;;
47161;SDS011;32921;53.256;8.198;2022-09-03T14:26:59;9.48;;;1.00;;
47161;SDS011;32921;53.256;8.198;2022-09-03T14:29:30;5.47;;;0.80;;
47161;SDS011;32921;53.256;8.198;2022-09-03T14:35:21;1.52;;;0.77;;
47161;SDS011;32921;53.256;8.198;2022-09-03T14:43:59;4.95;;;1.00;;
47161;SDS011;32921;53.256;8.198;2022-09-03T14:52:31;5.18;;;1.10;;
47161;SDS011;32921;53.256;8.198;2022-09-03T14:58:17;7.10;;;0.98;;
47161;SDS011;32921;53.256;8.198;2022-09-03T15:01:11;3.70;;;1.00;;
47161;SDS011;32921;53.256;8.198;2022-09-03T15:09:27;2.13;;;1.10;;
47161;SDS011;32921;53.256;8.198;2022-09-03T15:12:23;4.38;;;0.98;;
47161;SDS011;32921;53.256;8.198;2022-09-03T15:15:00;2.90;;;0.90;;
47161;SDS011;32921;53.256;8.198;2022-09-03T15:20:29;8.25;;;0.95;;
47161;SDS011;32921;53.256;8.198;2022-09-03T15:28:47;3.33;;;0.90;;
47161;SDS011;32921;53.256;8.198;2022-09-03T15:36:54;3.95;;;1.30;;
47161;SDS011;32921;53.256;8.198;2022-09-03T15:39:27;4.20;;;1.30;;
47161;SDS011;32921;53.256;8.198;2022-09-03T15:42:03;5.85;;;1.60;;
47161;SDS011;32921;53.256;8.198;2022-09-03T15:44:41;3.95;;;1.10;;
47161;SDS011;32921;53.256;8.198;2022-09-03T15:50:22;3.25;;;0.95;;
47161;SDS011;32921;53.256;8.198;2022-09-03T15:55:43;4.45;;;1.00;;
47161;SDS011;32921;53.256;8.198;2022-09-03T15:58:23;1.88;;;0.90;;
47161;SDS011;32921;53.256;8.198;2022-09-03T16:12:37;2.90;;;1.00;;
47161;SDS011;32921;53.256;8.198;2022-09-03T16:15:25;4.70;;;1.10;;
47161;SDS011;32921;53.256;8.198;2022-09-03T16:18:02;2.58;;;1.00;;
47161;SDS011;32921;53.256;8.198;2022-09-03T16:23:12;2.58;;;0.90;;
47161;SDS011;32921;53.256;8.198;2022-09-03T16:25:46;2.83;;;1.10;;
47161;SDS011;32921;53.256;8.198;2022-09-03T16:28:27;5.45;;;1.40;;
47161;SDS011;32921;53.256;8.198;2022-09-03T16:52:47;5.65;;;1.17;;
47161;SDS011;32921;53.256;8.198;2022-09-03T17:00:50;2.85;;;1.08;;
47161;SDS011;32921;53.256;8.198;2022-09-03T17:06:27;2.40;;;1.00;;
47161;SDS011;32921;53.256;8.198;2022-09-03T17:09:21;3.83;;;1.00;;
47161;SDS011;32921;53.256;8.198;2022-09-03T17:12:17;1.88;;;0.80;;
47161;SDS011;32921;53.256;8.198;2022-09-03T17:14:59;5.40;;;0.73;;
47161;SDS011;32921;53.256;8.198;2022-09-03T17:23:46;3.85;;;1.05;;
47161;SDS011;32921;53.256;8.198;2022-09-03T17:31:55;2.05;;;1.02;;
47161;SDS011;32921;53.256;8.198;2022-09-03T17:34:41;6.88;;;1.25;;
47161;SDS011;32921;53.256;8.198;2022-09-03T17:37:28;5.97;;;1.10;;
47161;SDS011;32921;53.256;8.198;2022-09-03T17:48:15;2.35;;;1.23;;
47161;SDS011;32921;53.256;8.198;2022-09-03T17:51:09;4.60;;;1.00;;
47161;SDS011;32921;53.256;8.198;2022-09-03T17:53:53;3.63;;;0.90;;
47161;SDS011;32921;53.256;8.198;2022-09-03T17:56:25;3.67;;;1.10;;
47161;SDS011;32921;53.256;8.198;2022-09-03T18:01:35;6.22;;;1.50;;
47161;SDS011;32921;53.256;8.198;2022-09-03T18:10:16;4.70;;;1.42;;
47161;SDS011;32921;53.256;8.198;2022-09-03T18:15:54;6.35;;;1.30;;
47161;SDS011;32921;53.256;8.198;2022-09-03T18:18:31;3.40;;;1.20;;
47161;SDS011;32921;53.256;8.198;2022-09-03T18:20:59;6.22;;;1.20;;
47161;SDS011;32921;53.256;8.198;2022-09-03T18:23:59;7.45;;;1.42;;
47161;SDS011;32921;53.256;8.198;2022-09-03T18:26:59;6.10;;;1.40;;
47161;SDS011;32921;53.256;8.198;2022-09-03T18:30:13;6.18;;;1.33;;
47161;SDS011;32921;53.256;8.198;2022-09-03T18:32:56;5.30;;;1.40;;
47161;SDS011;32921;53.256;8.198;2022-09-03T18:35:44;5.28;;;1.42;;
47161;SDS011;32921;53.256;8.198;2022-09-03T18:38:30;4.90;;;1.80;;
47161;SDS011;32921;53.256;8.198;2022-09-03T18:47:32;2.20;;;1.48;;
47161;SDS011;32921;53.256;8.198;2022-09-03T18:59:35;6.82;;;2.38;;
47161;SDS011;32921;53.256;8.198;2022-09-03T19:08:24;4.97;;;1.48;;
47161;SDS011;32921;53.256;8.198;2022-09-03T19:11:28;3.53;;;1.42;;
47161;SDS011;32921;53.256;8.198;2022-09-03T19:14:28;6.72;;;1.40;;
47161;SDS011;32921;53.256;8.198;2022-09-03T19:20:30;5.38;;;1.55;;
47161;SDS011;32921;53.256;8.198;2022-09-03T19:23:17;3.30;;;0.98;;
47161;SDS011;32921;53.256;8.198;2022-09-03T19:26:23;4.97;;;1.70;;
47161;SDS011;32921;53.256;8.198;2022-09-03T19:32:34;8.02;;;1.30;;
47161;SDS011;32921;53.256;8.198;2022-09-03T19:36:12;4.03;;;1.50;;
47161;SDS011;32921;53.256;8.198;2022-09-03T19:41:38;6.43;;;1.50;;
47161;SDS011;32921;53.256;8.198;2022-09-03T19:51:04;4.95;;;1.38;;
47161;SDS011;32921;53.256;8.198;2022-09-03T19:53:56;3.73;;;1.03;;
47161;SDS011;32921;53.256;8.198;2022-09-03T19:56:41;4.35;;;1.10;;
47161;SDS011;32921;53.256;8.198;2022-09-03T19:59:28;6.65;;;1.17;;
47161;SDS011;32921;53.256;8.198;2022-09-03T20:02:18;5.00;;;1.30;;
47161;SDS011;32921;53.256;8.198;2022-09-03T20:05:02;2.17;;;1.30;;
47161;SDS011;32921;53.256;8.198;2022-09-03T20:07:53;3.28;;;1.27;;
47161;SDS011;32921;53.256;8.198;2022-09-03T20:10:42;4.05;;;1.27;;
47161;SDS011;32921;53.256;8.198;2022-09-03T20:13:11;5.15;;;1.20;;
47161;SDS011;32921;53.256;8.198;2022-09-03T20:18:47;3.95;;;1.33;;
47161;SDS011;32921;53.256;8.198;2022-09-03T20:21:41;4.35;;;1.25;;
47161;SDS011;32921;53.256;8.198;2022-09-03T20:30:13;5.55;;;1.30;;
47161;SDS011;32921;53.256;8.198;2022-09-03T20:32:47;6.82;;;1.40;;
47161;SDS011;32921;53.256;8.198;2022-09-03T20:38:05;6.55;;;1.65;;